Time;durP1;ratioP1;P1;durP2;ratioP2;P2;SDS_P1;SDS_P2;PMS_P1;PMS_P2;Temp;Humidity;BMP_temperature;BMP_pressure;BME280_temperature;BME280_humidity;BME280_pressure;Samples;Min_cycle;Max_cycle;Signal;HPM_P1;HPM_P2
2022/05/22 00:01:34;;;;;;;6.82;3.70;;;;;;;18.27;71.77;95765.00;4993743;28;20022;-77
2022/05/22 00:04:00;;;;;;;7.75;4.18;;;;;;;18.22;72.17;95762.88;4991696;28;20031;-76
2022/05/22 00:06:25;;;;;;;8.57;4.10;;;;;;;18.23;71.98;95753.06;4989780;28;20561;-66
2022/05/22 00:08:51;;;;;;;9.45;4.10;;;;;;;18.19;72.90;95747.28;4993103;28;20026;-66
2022/05/22 00:11:16;;;;;;;4.18;3.35;;;;;;;18.15;73.17;95746.00;4989415;28;20027;-65
2022/05/22 00:13:42;;;;;;;5.57;4.10;;;;;;;18.07;73.64;95738.16;4991225;28;20018;-66
2022/05/22 00:18:51;;;;;;;7.10;4.25;;;;;;;17.91;73.77;95734.66;4993258;28;20089;-65
2022/05/22 00:21:16;;;;;;;7.78;3.95;;;;;;;17.91;74.35;95737.31;4991190;28;20022;-65
2022/05/22 00:23:45;;;;;;;8.00;3.88;;;;;;;17.90;74.43;95743.66;4992280;28;20026;-66
2022/05/22 00:26:10;;;;;;;6.65;3.83;;;;;;;17.90;73.77;95751.66;4990766;28;20033;-66
2022/05/22 00:28:36;;;;;;;7.43;4.32;;;;;;;17.96;73.73;95747.41;4988521;28;20409;-66
2022/05/22 00:31:01;;;;;;;6.72;3.67;;;;;;;17.97;73.74;95757.06;4988097;28;20045;-66
2022/05/22 00:33:28;;;;;;;6.57;3.75;;;;;;;17.91;73.75;95747.97;4990962;28;20573;-65
2022/05/22 00:35:54;;;;;;;7.68;4.00;;;;;;;17.90;73.74;95738.31;4989362;28;20033;-66
2022/05/22 00:38:19;;;;;;;6.75;3.60;;;;;;;17.95;73.66;95740.44;4992750;28;20022;-65
2022/05/22 00:40:45;;;;;;;7.47;4.30;;;;;;;17.96;73.97;95736.75;4989024;28;20031;-66
2022/05/22 00:43:32;;;;;;;7.57;5.00;;;;;;;17.91;74.16;95732.00;4990255;28;20022;-61
2022/05/22 00:45:58;;;;;;;4.35;3.60;;;;;;;17.89;73.87;95732.16;4992210;28;20023;-62
2022/05/22 00:48:24;;;;;;;9.68;4.05;;;;;;;17.96;73.44;95731.44;4990825;28;20535;-61
2022/05/22 00:50:52;;;;;;;12.00;4.57;;;;;;;17.94;73.90;95736.94;4988212;28;20023;-61
2022/05/22 00:53:21;;;;;;;6.05;3.83;;;;;;;17.72;75.00;95736.06;4990518;28;20023;-61
2022/05/22 00:55:47;;;;;;;6.38;4.00;;;;;;;17.65;75.30;95729.81;4990195;28;20038;-75
2022/05/22 00:58:24;;;;;;;6.40;4.03;;;;;;;17.58;75.60;95729.75;4989012;28;20564;-75
2022/05/22 01:00:50;;;;;;;8.07;4.10;;;;;;;17.53;75.43;95727.63;4991394;28;20023;-75
2022/05/22 01:03:28;;;;;;;8.35;4.10;;;;;;;17.47;75.63;95725.72;4986833;28;20045;-75
2022/05/22 01:06:04;;;;;;;4.78;3.80;;;;;;;17.44;75.97;95726.06;4989690;28;20041;-75
2022/05/22 01:08:31;;;;;;;6.07;4.20;;;;;;;17.43;75.87;95725.25;4989587;28;20109;-75
2022/05/22 01:11:03;;;;;;;7.63;4.03;;;;;;;17.38;76.67;95719.66;4990936;28;20025;-75
2022/05/22 01:13:36;;;;;;;8.95;4.40;;;;;;;17.36;76.83;95719.03;4989085;28;20513;-75
2022/05/22 01:16:04;;;;;;;6.90;4.68;;;;;;;17.35;76.75;95713.88;4989608;28;20026;-75
2022/05/22 01:18:30;;;;;;;8.45;4.32;;;;;;;17.33;77.06;95714.91;4989202;28;20026;-75
2022/05/22 01:20:56;;;;;;;7.75;4.03;;;;;;;17.27;77.51;95706.81;4989855;28;20418;-75
2022/05/22 01:23:23;;;;;;;12.82;4.68;;;;;;;17.30;77.41;95706.44;4991822;28;20027;-76
2022/05/22 01:25:49;;;;;;;8.70;4.18;;;;;;;17.33;77.00;95708.72;4986825;28;20027;-75
2022/05/22 01:28:18;;;;;;;6.50;4.28;;;;;;;17.36;77.25;95700.41;4989788;28;20041;-76
2022/05/22 01:30:44;;;;;;;5.75;3.72;;;;;;;17.33;77.24;95706.91;4990537;28;20058;-75
2022/05/22 01:33:09;;;;;;;7.25;4.10;;;;;;;17.37;76.73;95694.06;4989935;28;20097;-75
2022/05/22 01:35:35;;;;;;;8.27;3.95;;;;;;;17.44;76.39;95702.97;4989750;28;20030;-75
2022/05/22 01:38:02;;;;;;;9.15;4.53;;;;;;;17.44;76.34;95697.63;4989650;28;20118;-75
2022/05/22 01:40:28;;;;;;;9.15;4.90;;;;;;;17.42;76.83;95694.34;4989423;28;20058;-76
2022/05/22 01:42:54;;;;;;;10.73;4.50;;;;;;;17.35;76.84;95693.41;4990906;28;20073;-75
2022/05/22 01:45:25;;;;;;;4.90;4.13;;;;;;;17.31;76.99;95684.16;4987467;28;20390;-75
2022/05/22 01:47:50;;;;;;;5.63;4.50;;;;;;;17.29;78.33;95688.81;4989457;28;20042;-75
2022/05/22 01:50:17;;;;;;;8.70;4.63;;;;;;;17.25;78.57;95674.25;4989272;28;20033;-75
2022/05/22 01:52:42;;;;;;;7.13;4.50;;;;;;;17.23;78.10;95670.94;4991843;28;20038;-75
2022/05/22 01:55:09;;;;;;;7.22;4.68;;;;;;;17.16;78.07;95670.84;4989459;28;20030;-75
2022/05/22 01:57:35;;;;;;;7.43;4.30;;;;;;;17.14;78.46;95681.69;4990671;28;20034;-75
2022/05/22 02:00:01;;;;;;;9.40;4.35;;;;;;;17.12;78.05;95672.25;4987318;28;20453;-76
2022/05/22 02:02:26;;;;;;;4.65;3.90;;;;;;;17.10;78.17;95676.91;4988401;28;20087;-76
2022/05/22 02:04:52;;;;;;;15.70;4.65;;;;;;;17.10;78.46;95669.75;4987109;28;20080;-76
2022/05/22 02:10:02;;;;;;;10.30;4.65;;;;;;;17.03;79.04;95668.84;4986154;28;20036;-75
2022/05/22 02:12:29;;;;;;;9.35;4.53;;;;;;;17.04;78.44;95673.16;4986040;28;20081;-75
2022/05/22 02:14:55;;;;;;;8.30;4.43;;;;;;;17.01;78.67;95671.66;4989110;28;20509;-76
2022/05/22 02:17:20;;;;;;;6.80;4.32;;;;;;;16.98;78.54;95671.19;4987165;28;20053;-76
2022/05/22 02:19:46;;;;;;;5.00;4.22;;;;;;;16.98;79.43;95676.50;4990494;28;20058;-75
2022/05/22 02:22:11;;;;;;;6.25;4.28;;;;;;;17.00;79.24;95682.50;4989833;28;20041;-76
2022/05/22 02:24:36;;;;;;;6.03;3.95;;;;;;;17.06;78.29;95671.13;4988993;28;20095;-76
2022/05/22 02:27:08;;;;;;;8.25;4.30;;;;;;;17.02;79.40;95664.53;4990777;28;20026;-76
2022/05/22 02:29:35;;;;;;;6.68;4.30;;;;;;;16.98;79.08;95674.69;4987285;28;20030;-75
2022/05/22 02:32:00;;;;;;;8.95;4.47;;;;;;;16.98;78.66;95671.19;4987590;28;20409;-75
2022/05/22 02:34:25;;;;;;;7.03;4.15;;;;;;;16.90;79.24;95664.94;4990877;28;20019;-76
2022/05/22 02:36:51;;;;;;;5.88;4.35;;;;;;;16.86;79.08;95668.16;4987305;28;20026;-76
2022/05/22 02:39:18;;;;;;;5.82;4.93;;;;;;;16.84;79.25;95664.88;4990839;28;20030;-75
2022/05/22 02:41:44;;;;;;;6.00;4.13;;;;;;;16.84;79.09;95657.69;4985507;28;20026;-76
2022/05/22 02:44:10;;;;;;;10.02;5.18;;;;;;;16.81;79.83;95660.72;4987626;28;20030;-76
2022/05/22 02:46:35;;;;;;;6.97;4.47;;;;;;;16.73;80.05;95666.94;4988806;28;20026;-76
2022/05/22 02:49:00;;;;;;;6.55;4.95;;;;;;;16.70;80.60;95658.53;4988610;28;20097;-76
2022/05/22 02:51:26;;;;;;;7.55;4.40;;;;;;;16.65;80.97;95655.56;4988031;28;20026;-76
2022/05/22 02:53:51;;;;;;;7.93;4.28;;;;;;;16.74;79.91;95662.47;4985484;28;20566;-75
2022/05/22 02:56:20;;;;;;;9.00;4.43;;;;;;;16.72;80.58;95656.50;4988163;28;20025;-76
2022/05/22 02:58:46;;;;;;;6.78;4.85;;;;;;;16.71;80.54;95660.19;4989813;28;20109;-76
2022/05/22 03:01:11;;;;;;;5.47;4.88;;;;;;;16.65;80.93;95653.75;4985629;28;20113;-76
2022/05/22 03:03:37;;;;;;;12.90;5.05;;;;;;;16.65;81.17;95653.75;4983423;28;20743;-76
2022/05/22 03:08:46;;;;;;;7.60;4.88;;;;;;;16.63;80.71;95647.78;4990211;28;20061;-76
2022/05/22 03:11:12;;;;;;;5.30;4.18;;;;;;;16.57;80.91;95657.31;4986147;28;20780;-74
2022/05/22 03:13:37;;;;;;;8.55;4.47;;;;;;;16.54;80.47;95654.16;4985537;28;20038;-74
2022/05/22 03:16:03;;;;;;;8.25;4.90;;;;;;;16.53;80.54;95653.34;4988531;28;20026;-76
2022/05/22 03:18:29;;;;;;;4.20;3.85;;;;;;;16.49;81.69;95657.38;4985700;28;20033;-75
2022/05/22 03:20:55;;;;;;;5.57;4.57;;;;;;;16.43;81.70;95650.97;4989781;28;20018;-75
2022/05/22 03:23:20;;;;;;;6.55;4.65;;;;;;;16.39;82.45;95654.97;4994044;28;20033;-75
2022/05/22 03:25:49;;;;;;;6.70;4.90;;;;;;;16.29;82.87;95651.72;4991994;28;20038;-75
2022/05/22 03:28:15;;;;;;;14.45;5.20;;;;;;;16.35;81.93;95642.22;4990861;28;20073;-75
2022/05/22 03:30:41;;;;;;;9.65;4.82;;;;;;;16.36;81.93;95646.53;4992484;28;20621;-74
2022/05/22 03:33:06;;;;;;;10.68;5.03;;;;;;;16.40;82.25;95634.53;4973089;28;20026;-75
2022/05/22 03:35:32;;;;;;;5.47;4.57;;;;;;;16.36;82.66;95633.25;4992081;28;20029;-75
2022/05/22 03:37:58;;;;;;;9.07;4.15;;;;;;;16.32;83.18;95630.13;4989302;28;20402;-75
2022/05/22 03:40:24;;;;;;;8.13;4.75;;;;;;;16.33;82.63;95629.13;4994236;28;20026;-75
2022/05/22 03:42:49;;;;;;;11.27;5.00;;;;;;;16.36;82.98;95628.78;4988875;28;20069;-75
2022/05/22 03:45:14;;;;;;;9.90;4.55;;;;;;;16.29;83.78;95627.81;4990926;28;20523;-74
2022/05/22 03:47:40;;;;;;;7.30;4.20;;;;;;;16.19;83.62;95625.41;4993594;28;20057;-75
2022/05/22 03:50:10;;;;;;;7.10;4.50;;;;;;;16.26;83.76;95628.19;4991621;28;20027;-75
2022/05/22 03:52:39;;;;;;;6.70;4.80;;;;;;;16.29;82.99;95626.00;4989043;28;20031;-75
2022/05/22 03:55:07;;;;;;;7.18;4.80;;;;;;;16.34;83.04;95628.09;4990516;28;20398;-74
2022/05/22 03:57:33;;;;;;;10.63;4.88;;;;;;;16.33;83.23;95621.97;4992997;28;20019;-74
2022/05/22 03:59:59;;;;;;;11.23;4.32;;;;;;;16.42;82.63;95624.56;4991269;28;20073;-75
2022/05/22 04:02:24;;;;;;;7.28;4.75;;;;;;;16.42;82.10;95627.22;4991030;28;20030;-75
2022/05/22 04:04:49;;;;;;;6.80;4.70;;;;;;;16.35;83.35;95629.75;4991418;28;20038;-74
2022/05/22 04:07:16;;;;;;;8.80;5.03;;;;;;;16.28;83.55;95628.81;4993458;28;20044;-74
2022/05/22 04:09:42;;;;;;;8.10;5.07;;;;;;;16.28;83.66;95626.16;4991412;28;20439;-74
2022/05/22 04:12:09;;;;;;;7.10;5.18;;;;;;;16.33;83.17;95627.28;4993221;28;20563;-75
2022/05/22 04:14:34;;;;;;;8.07;4.10;;;;;;;16.32;83.85;95636.28;4990443;28;20030;-74
2022/05/22 04:16:59;;;;;;;7.03;5.00;;;;;;;16.33;83.84;95637.91;4991134;28;20038;-74
2022/05/22 04:19:25;;;;;;;8.93;4.63;;;;;;;16.29;83.82;95636.63;4990489;28;20560;-75
2022/05/22 04:21:51;;;;;;;9.73;4.50;;;;;;;16.20;84.21;95635.03;4993160;28;20029;-74
2022/05/22 04:27:07;;;;;;;7.15;4.60;;;;;;;16.21;84.60;95627.91;4990265;28;20040;-74
2022/05/22 04:29:34;;;;;;;7.72;4.35;;;;;;;16.23;84.72;95637.31;4991407;28;20101;-74
2022/05/22 04:32:00;;;;;;;11.30;5.03;;;;;;;16.24;84.65;95633.66;4985708;28;20457;-74
2022/05/22 04:34:25;;;;;;;6.20;4.57;;;;;;;16.16;84.82;95639.06;4993214;28;20026;-73
2022/05/22 04:36:51;;;;;;;8.98;4.40;;;;;;;16.18;84.30;95631.72;4990950;28;20022;-74
2022/05/22 04:39:16;;;;;;;5.50;4.93;;;;;;;16.27;84.27;95636.00;4992056;28;20037;-73
2022/05/22 04:41:42;;;;;;;6.47;4.93;;;;;;;16.29;84.29;95636.63;4989796;28;20062;-74
2022/05/22 04:44:08;;;;;;;7.28;4.63;;;;;;;16.37;84.05;95634.91;4988195;28;20022;-74
2022/05/22 04:46:34;;;;;;;9.48;4.50;;;;;;;16.43;84.42;95632.34;4988825;28;20114;-73
2022/05/22 04:48:59;;;;;;;7.93;4.43;;;;;;;16.46;83.83;95634.66;4987952;28;20046;-74
2022/05/22 04:51:25;;;;;;;7.53;5.10;;;;;;;16.52;84.27;95633.09;4988564;28;20022;-73
2022/05/22 04:53:50;;;;;;;7.60;5.05;;;;;;;16.56;84.36;95631.72;4992116;28;20022;-73
2022/05/22 04:56:16;;;;;;;8.68;4.90;;;;;;;16.60;83.72;95633.03;4990118;28;20029;-73
2022/05/22 04:58:41;;;;;;;13.90;5.05;;;;;;;16.66;84.24;95627.97;4988467;28;20054;-74
2022/05/22 05:01:08;;;;;;;7.20;4.70;;;;;;;16.74;83.69;95633.22;4989276;28;20031;-73
2022/05/22 05:03:34;;;;;;;8.02;4.97;;;;;;;16.82;83.56;95634.97;4990559;28;20025;-73
2022/05/22 05:06:00;;;;;;;5.82;4.70;;;;;;;16.97;83.39;95635.78;4988118;28;20031;-73
2022/05/22 05:08:27;;;;;;;5.97;4.38;;;;;;;17.06;82.95;95633.91;4990978;28;20038;-73
2022/05/22 05:10:52;;;;;;;7.22;5.15;;;;;;;17.17;82.89;95638.75;4991479;28;20035;-73
2022/05/22 05:13:21;;;;;;;9.48;4.78;;;;;;;17.24;82.50;95638.03;4985559;28;20041;-73
2022/05/22 05:15:57;;;;;;;4.57;4.22;;;;;;;17.36;82.21;95639.22;4989443;28;20502;-73
2022/05/22 05:18:23;;;;;;;7.88;4.55;;;;;;;17.42;81.90;95637.63;4990586;28;20082;-73
2022/05/22 05:20:49;;;;;;;7.45;4.70;;;;;;;17.49;81.96;95633.22;4989160;28;20034;-73
2022/05/22 05:23:14;;;;;;;4.65;4.22;;;;;;;17.60;82.24;95634.56;4991490;28;20030;-73
2022/05/22 05:25:40;;;;;;;8.20;4.28;;;;;;;17.65;82.66;95640.16;4988647;28;20041;-73
2022/05/22 05:28:05;;;;;;;7.47;5.07;;;;;;;17.74;82.30;95633.69;4990064;28;20100;-73
2022/05/22 05:30:31;;;;;;;5.18;4.22;;;;;;;17.85;81.48;95629.69;4990249;28;20030;-73
2022/05/22 05:32:56;;;;;;;5.43;4.50;;;;;;;17.91;80.77;95630.78;4989334;28;20501;-73
2022/05/22 05:35:22;;;;;;;7.72;4.85;;;;;;;17.90;80.22;95631.81;4988692;28;20394;-73
2022/05/22 05:37:47;;;;;;;12.43;4.55;;;;;;;17.85;80.39;95629.69;4989959;28;20124;-73
2022/05/22 05:40:13;;;;;;;8.63;4.40;;;;;;;17.73;80.69;95633.91;4990329;28;20383;-73
2022/05/22 05:42:40;;;;;;;6.05;4.70;;;;;;;17.63;81.22;95634.19;4989143;28;20041;-73
2022/05/22 05:45:07;;;;;;;5.93;4.78;;;;;;;17.65;80.78;95623.34;4989783;28;20034;-73
2022/05/22 05:47:33;;;;;;;6.65;4.30;;;;;;;17.78;80.77;95635.97;4989689;28;20057;-73
2022/05/22 05:49:58;;;;;;;7.78;4.55;;;;;;;17.92;79.71;95628.97;4988931;28;20039;-73
2022/05/22 05:52:24;;;;;;;7.03;4.43;;;;;;;18.08;78.34;95634.06;4989982;28;20036;-74
2022/05/22 05:54:49;;;;;;;6.90;4.05;;;;;;;18.12;77.86;95639.84;4987347;28;20102;-74
2022/05/22 05:57:15;;;;;;;10.80;4.68;;;;;;;18.30;77.09;95644.69;4988277;28;20101;-74
2022/05/22 05:59:41;;;;;;;8.32;4.72;;;;;;;18.54;76.20;95651.47;4988222;28;20026;-74
2022/05/22 06:02:11;;;;;;;8.68;4.60;;;;;;;18.68;76.50;95649.72;4989791;28;20645;-75
2022/05/22 06:04:36;;;;;;;8.55;5.55;;;;;;;18.76;75.84;95646.09;4987126;28;20088;-74
2022/05/22 06:07:02;;;;;;;8.32;4.68;;;;;;;18.85;74.82;95646.78;4989094;28;20034;-74
2022/05/22 06:09:28;;;;;;;13.63;4.88;;;;;;;18.99;74.90;95640.50;4989188;28;20034;-74
2022/05/22 06:11:53;;;;;;;16.58;5.93;;;;;;;19.17;73.41;95647.19;4989128;28;20089;-74
2022/05/22 06:14:18;;;;;;;5.30;4.38;;;;;;;19.50;72.58;95640.34;4988209;28;20080;-74
2022/05/22 06:16:44;;;;;;;7.55;4.68;;;;;;;19.71;72.00;95645.56;4985461;28;20027;-74
2022/05/22 06:19:09;;;;;;;5.82;3.95;;;;;;;19.90;70.67;95644.00;4990218;28;20492;-75
2022/05/22 06:21:34;;;;;;;6.90;4.35;;;;;;;20.12;70.97;95649.22;4986899;28;20233;-75
2022/05/22 06:24:00;;;;;;;6.05;4.40;;;;;;;20.39;69.08;95643.88;4988364;28;20030;-75
2022/05/22 06:26:25;;;;;;;11.30;4.70;;;;;;;20.55;67.74;95639.13;4988100;28;20034;-74
2022/05/22 06:28:51;;;;;;;5.35;4.10;;;;;;;20.76;66.78;95641.59;4988791;28;20109;-73
2022/05/22 06:31:17;;;;;;;10.18;3.88;;;;;;;21.08;65.11;95642.81;4988646;28;20486;-64
2022/05/22 06:33:43;;;;;;;9.40;4.22;;;;;;;21.46;63.03;95639.41;4990280;28;20022;-64
2022/05/22 06:36:10;;;;;;;8.50;4.55;;;;;;;21.70;63.09;95645.91;4989741;28;20481;-65
2022/05/22 06:41:20;;;;;;;5.75;3.88;;;;;;;22.29;61.28;95632.38;4979868;28;20100;-64
2022/05/22 06:43:51;;;;;;;5.88;4.07;;;;;;;22.45;59.84;95627.53;4987819;28;20504;-64
2022/05/22 06:46:18;;;;;;;7.07;3.75;;;;;;;22.55;59.77;95627.88;4988827;28;20038;-64
2022/05/22 06:48:43;;;;;;;7.03;3.75;;;;;;;22.81;59.22;95623.31;4990134;28;20064;-65
2022/05/22 06:51:09;;;;;;;6.45;3.83;;;;;;;22.71;58.99;95626.50;4987622;28;20549;-63
2022/05/22 06:53:34;;;;;;;5.70;4.10;;;;;;;22.71;59.99;95631.06;4985174;28;20109;-61
2022/05/22 06:55:59;;;;;;;9.45;3.67;;;;;;;22.80;60.46;95635.09;4988069;28;20026;-62
2022/05/22 06:58:25;;;;;;;8.07;3.75;;;;;;;22.80;60.06;95632.41;4987933;28;20117;-62
2022/05/22 07:00:54;;;;;;;8.43;4.47;;;;;;;22.80;58.35;95629.72;4986430;28;20494;-62
2022/05/22 07:03:20;;;;;;;6.35;4.15;;;;;;;22.65;60.05;95637.28;4986926;28;20516;-64
2022/05/22 07:05:45;;;;;;;5.78;4.07;;;;;;;22.63;60.63;95636.69;4988811;28;20035;-64
2022/05/22 07:08:11;;;;;;;11.75;3.75;;;;;;;22.54;60.26;95631.59;4990256;28;20026;-63
2022/05/22 07:13:20;;;;;;;7.25;4.10;;;;;;;22.32;58.20;95626.56;4987188;28;20033;-63
2022/05/22 07:15:55;;;;;;;7.90;3.80;;;;;;;22.54;58.92;95634.28;4988814;28;20034;-63
2022/05/22 07:18:21;;;;;;;5.80;3.67;;;;;;;22.87;59.06;95627.78;4984591;28;20121;-63
2022/05/22 07:20:46;;;;;;;10.98;4.22;;;;;;;23.06;58.81;95621.63;4989299;28;20126;-63
2022/05/22 07:23:11;;;;;;;9.10;4.30;;;;;;;23.41;58.70;95623.72;4989063;28;20019;-62
2022/05/22 07:25:37;;;;;;;3.88;3.45;;;;;;;23.82;57.03;95624.88;4984893;28;20496;-63
2022/05/22 07:28:02;;;;;;;8.27;4.18;;;;;;;24.09;55.03;95623.72;4988372;28;20031;-62
2022/05/22 07:30:28;;;;;;;5.30;3.50;;;;;;;24.10;54.07;95631.56;4987406;28;20018;-63
2022/05/22 07:32:55;;;;;;;9.45;4.00;;;;;;;23.92;55.65;95634.28;4985955;28;20498;-65
2022/05/22 07:35:20;;;;;;;10.02;3.55;;;;;;;23.95;55.27;95639.19;4989801;28;20022;-65
2022/05/22 07:37:49;;;;;;;9.48;3.78;;;;;;;23.92;54.70;95629.69;4986170;28;20038;-66
2022/05/22 07:40:15;;;;;;;8.85;3.40;;;;;;;23.91;53.86;95638.00;4982893;28;20101;-67
2022/05/22 07:42:40;;;;;;;8.40;3.88;;;;;;;23.94;56.23;95638.34;4988169;28;20549;-66
2022/05/22 07:45:07;;;;;;;10.13;4.10;;;;;;;24.08;53.41;95635.53;4987165;28;20046;-66
2022/05/22 07:47:32;;;;;;;6.50;3.95;;;;;;;24.06;54.03;95632.25;4987981;28;20108;-66
2022/05/22 07:50:16;;;;;;;5.20;4.13;;;;;;;24.45;52.55;95630.81;4987300;28;20022;-66
2022/05/22 07:52:42;;;;;;;7.03;4.15;;;;;;;24.66;50.44;95619.75;4986719;28;20383;-66
2022/05/22 07:55:14;;;;;;;7.68;3.85;;;;;;;24.89;49.37;95625.16;4987698;28;20093;-65
2022/05/22 07:57:44;;;;;;;5.43;4.15;;;;;;;24.90;50.00;95612.50;4988002;28;20065;-66
2022/05/22 08:00:11;;;;;;;9.80;3.55;;;;;;;25.14;49.38;95612.47;4986992;28;20046;-66
2022/05/22 08:02:37;;;;;;;5.57;3.60;;;;;;;25.45;48.27;95603.16;4988062;28;20108;-66
2022/05/22 08:05:04;;;;;;;18.63;4.70;;;;;;;25.77;48.29;95598.41;4987802;28;20050;-66
2022/05/22 08:07:31;;;;;;;5.40;3.80;;;;;;;26.02;46.80;95584.56;4988646;28;20446;-67
2022/05/22 08:09:56;;;;;;;5.78;3.95;;;;;;;25.78;45.92;95590.06;4991513;28;20022;-67
2022/05/22 08:12:22;;;;;;;7.22;3.90;;;;;;;25.99;46.39;95585.88;4990746;28;20501;-67
2022/05/22 08:14:47;;;;;;;6.93;4.18;;;;;;;25.87;46.52;95585.94;4990505;28;20022;-66
2022/05/22 08:17:15;;;;;;;5.55;4.00;;;;;;;25.36;46.68;95583.03;4991334;28;20014;-66
2022/05/22 08:19:41;;;;;;;7.05;4.07;;;;;;;25.00;49.19;95574.22;4989294;28;20027;-67
2022/05/22 08:22:06;;;;;;;5.75;3.50;;;;;;;24.79;49.27;95579.16;4990090;28;20156;-66
2022/05/22 08:24:32;;;;;;;11.32;3.53;;;;;;;24.79;49.14;95573.75;4988766;28;20504;-67
2022/05/22 08:26:57;;;;;;;6.57;3.58;;;;;;;24.77;48.23;95559.72;4992938;28;20037;-66
2022/05/22 08:29:22;;;;;;;7.30;3.80;;;;;;;25.12;47.91;95564.25;4989086;28;20683;-67
2022/05/22 08:31:48;;;;;;;7.70;3.63;;;;;;;25.52;46.99;95561.81;4991358;28;20019;-66
2022/05/22 08:34:14;;;;;;;9.10;3.92;;;;;;;25.59;47.69;95551.72;4990678;28;20041;-66
2022/05/22 08:36:39;;;;;;;7.72;4.13;;;;;;;25.70;46.46;95553.53;4989459;28;20026;-66
2022/05/22 08:39:05;;;;;;;13.73;3.85;;;;;;;26.11;44.82;95549.91;4975315;28;20113;-67
2022/05/22 08:42:06;;;;;;;10.35;3.90;;;;;;;26.02;45.32;95555.72;4989078;28;20022;-66
2022/05/22 08:44:32;;;;;;;6.03;4.22;;;;;;;26.46;44.80;95547.00;4977041;28;20093;-66
2022/05/22 08:47:01;;;;;;;5.32;3.47;;;;;;;26.75;44.91;95546.06;4990829;28;20026;-66
2022/05/22 08:49:45;;;;;;;10.80;3.85;;;;;;;27.11;43.27;95541.19;4987723;28;20034;-65
2022/05/22 08:52:17;;;;;;;6.25;3.35;;;;;;;27.50;41.98;95540.28;4986744;28;20054;-64
2022/05/22 08:54:49;;;;;;;6.45;3.88;;;;;;;27.80;40.99;95536.28;4981087;28;20624;-65
2022/05/22 09:00:06;;;;;;;5.15;3.47;;;;;;;27.80;41.47;95530.06;4988445;28;20072;-64
2022/05/22 09:03:04;;;;;;;5.20;3.50;;;;;;;28.69;39.10;95535.13;4989801;28;20018;-66
2022/05/22 09:05:31;;;;;;;9.60;3.33;;;;;;;28.82;39.36;95529.25;4986209;28;20073;-64
2022/05/22 09:08:00;;;;;;;5.60;3.83;;;;;;;29.17;38.83;95527.81;4989468;28;20029;-65
2022/05/22 09:10:34;;;;;;;8.68;3.95;;;;;;;29.31;38.30;95525.41;4987221;28;20473;-65
2022/05/22 09:13:17;;;;;;;8.32;3.60;;;;;;;29.03;38.57;95529.34;4982465;28;20022;-64
2022/05/22 09:15:50;;;;;;;11.95;3.65;;;;;;;28.93;38.61;95532.03;4990194;28;20090;-65
2022/05/22 09:18:30;;;;;;;6.03;4.15;;;;;;;29.31;38.56;95525.41;4989687;28;20046;-64
2022/05/22 09:21:06;;;;;;;8.55;3.40;;;;;;;29.37;38.89;95533.56;4986672;28;20058;-65
2022/05/22 09:23:46;;;;;;;5.63;3.70;;;;;;;29.50;38.13;95524.13;4989160;28;20030;-66
2022/05/22 09:26:58;;;;;;;12.75;3.53;;;;;;;29.44;36.65;95521.41;4986346;28;20033;-64
2022/05/22 09:29:26;;;;;;;4.57;3.42;;;;;;;29.79;36.16;95523.69;4946716;29;20035;-65
2022/05/22 09:32:29;;;;;;;13.15;3.72;;;;;;;29.72;36.04;95518.50;4985269;28;20617;-64
2022/05/22 09:35:12;;;;;;;5.55;3.58;;;;;;;29.71;34.70;95509.53;4989481;28;20030;-65
2022/05/22 09:37:55;;;;;;;9.35;4.00;;;;;;;30.42;34.44;95509.06;4989767;28;20037;-61
2022/05/22 09:40:30;;;;;;;5.90;3.75;;;;;;;29.95;35.92;95514.44;4987050;28;20027;-62
2022/05/22 09:43:14;;;;;;;;;;;;;;;29.50;38.44;95499.72;4988474;28;20030;-73
2022/05/22 09:45:54;;;;;;;10.32;3.55;;;;;;;29.75;37.63;95506.31;4989837;28;19913;-62
2022/05/22 09:48:55;;;;;;;4.68;3.58;;;;;;;29.97;38.43;95504.16;4989378;28;20046;-62
2022/05/22 09:51:49;;;;;;;9.35;4.15;;;;;;;29.69;39.15;95494.63;4988088;28;20564;-61
2022/05/22 09:54:15;;;;;;;9.07;4.38;;;;;;;29.42;40.15;95491.03;4987170;28;20069;-62
2022/05/22 09:56:58;;;;;;;5.70;3.70;;;;;;;28.93;40.10;95475.94;4989470;28;20033;-62
2022/05/22 10:00:00;;;;;;;12.20;3.80;;;;;;;28.86;42.40;95470.78;4987721;28;20019;-61
2022/05/22 10:02:46;;;;;;;10.40;4.15;;;;;;;29.42;40.86;95468.56;4981486;28;20027;-62
2022/05/22 10:05:18;;;;;;;9.25;3.75;;;;;;;29.88;39.10;95455.06;4985702;28;20097;-61
2022/05/22 10:07:55;;;;;;;6.72;4.05;;;;;;;29.73;39.94;95455.03;4989102;28;20045;-61
2022/05/22 10:10:27;;;;;;;10.73;4.30;;;;;;;30.57;38.31;95452.00;4991048;28;20046;-61
2022/05/22 10:13:17;;;;;;;9.20;4.40;;;;;;;29.92;37.85;95451.78;4986301;28;20030;-61
2022/05/22 10:16:26;;;;;;;10.60;4.60;;;;;;;29.86;39.73;95443.66;4988021;28;20034;-61
2022/05/22 10:19:13;;;;;;;7.57;4.07;;;;;;;30.29;38.48;95443.38;4982896;28;20039;-62
2022/05/22 10:21:51;;;;;;;8.73;4.05;;;;;;;30.25;38.97;95438.75;4988956;28;20030;-62
2022/05/22 10:24:40;;;;;;;7.70;3.70;;;;;;;30.07;39.75;95434.72;4987645;28;20034;-61
2022/05/22 10:27:21;;;;;;;5.60;3.72;;;;;;;30.26;39.48;95427.63;4984527;28;20044;-62
2022/05/22 10:30:00;;;;;;;5.30;3.78;;;;;;;30.74;38.44;95421.00;4987731;28;20041;-61
2022/05/22 10:32:37;;;;;;;6.32;3.97;;;;;;;30.40;37.65;95418.94;4986232;28;20102;-61
2022/05/22 10:35:14;;;;;;;7.75;4.32;;;;;;;30.76;37.29;95421.53;4982170;28;20030;-61
2022/05/22 10:37:49;;;;;;;8.27;4.47;;;;;;;30.32;39.44;95419.47;4989162;28;20030;-60
2022/05/22 10:40:18;;;;;;;6.13;3.78;;;;;;;30.63;39.05;95408.56;4988532;28;20453;-62
2022/05/22 10:42:49;;;;;;;6.15;4.00;;;;;;;31.20;38.28;95403.69;4988613;28;20023;-62
2022/05/22 10:45:41;;;;;;;6.25;3.67;;;;;;;31.47;36.42;95399.72;4988831;28;20042;-62
2022/05/22 10:48:23;;;;;;;9.95;4.28;;;;;;;31.56;37.59;95394.50;4985554;28;20096;-62
2022/05/22 10:51:07;;;;;;;7.18;4.10;;;;;;;31.42;37.66;95389.69;4970154;28;20052;-62
2022/05/22 10:53:40;;;;;;;32.20;21.92;;;;;;;31.40;36.59;95381.00;4986265;28;20031;-62
2022/05/22 10:56:17;;;;;;;8.82;4.63;;;;;;;32.10;36.06;95367.38;4982388;28;20054;-62
2022/05/22 10:58:58;;;;;;;5.65;4.03;;;;;;;32.17;34.28;95370.56;4989216;28;20023;-61
2022/05/22 11:01:27;;;;;;;8.50;4.03;;;;;;;32.53;34.22;95364.75;4987791;28;20510;-61
2022/05/22 11:04:11;;;;;;;5.00;3.42;;;;;;;32.39;34.60;95367.34;4988362;28;20026;-61
2022/05/22 11:06:50;;;;;;;12.57;3.90;;;;;;;32.66;34.12;95365.94;4983839;28;20038;-61
2022/05/22 11:09:24;;;;;;;5.72;3.92;;;;;;;32.74;33.16;95369.94;4985141;28;20069;-61
2022/05/22 11:11:49;;;;;;;9.90;6.53;;;;;;;32.37;33.74;95368.75;4988567;28;20041;-61
2022/05/22 11:14:20;;;;;;;7.47;4.93;;;;;;;31.97;35.55;95371.56;4987214;28;20460;-62
2022/05/22 11:16:45;;;;;;;6.15;3.47;;;;;;;32.01;35.76;95375.34;4986497;28;20034;-61
2022/05/22 11:19:19;;;;;;;7.90;3.97;;;;;;;31.74;35.19;95373.94;4987314;28;20077;-61
2022/05/22 11:22:03;;;;;;;13.43;4.72;;;;;;;31.11;35.77;95378.16;4987569;28;20026;-61
2022/05/22 11:25:00;;;;;;;14.73;4.22;;;;;;;30.53;36.74;95380.31;4985867;28;20482;-62
2022/05/22 11:27:52;;;;;;;7.45;3.85;;;;;;;31.28;37.62;95377.81;4933407;28;20435;-62
2022/05/22 11:30:32;;;;;;;9.52;3.78;;;;;;;31.46;38.24;95361.91;4985677;28;20035;-62
2022/05/22 11:33:27;;;;;;;9.77;3.83;;;;;;;31.23;38.47;95366.97;4986625;28;20027;-62
2022/05/22 11:35:55;;;;;;;13.93;3.70;;;;;;;31.51;37.85;95354.53;4981984;28;20026;-61
2022/05/22 11:38:36;;;;;;;7.00;3.80;;;;;;;30.90;39.21;95350.31;4986268;28;20068;-62
2022/05/22 11:41:24;;;;;;;9.40;3.50;;;;;;;30.77;39.09;95349.00;4988014;28;20142;-62
2022/05/22 11:43:50;;;;;;;8.23;3.95;;;;;;;31.04;38.45;95348.56;4993522;28;20034;-62
2022/05/22 11:46:50;;;;;;;6.43;4.15;;;;;;;31.05;39.36;95336.59;4990806;28;20401;-62
2022/05/22 11:49:40;;;;;;;8.80;4.35;;;;;;;30.98;38.53;95336.13;4976402;28;20108;-62
2022/05/22 11:55:36;;;;;;;6.03;3.80;;;;;;;31.87;36.26;95312.63;4991195;28;20107;-62
2022/05/22 11:58:07;;;;;;;6.28;3.47;;;;;;;32.17;37.13;95307.13;4990598;28;20038;-62
2022/05/22 12:00:40;;;;;;;4.85;3.45;;;;;;;32.25;36.21;95301.88;4988073;28;20030;-63
2022/05/22 12:03:11;;;;;;;8.10;3.50;;;;;;;32.24;35.38;95289.34;4964701;28;20047;-63
2022/05/22 12:06:02;;;;;;;8.07;3.80;;;;;;;32.36;34.57;95288.13;4989672;28;20042;-62
2022/05/22 12:08:45;;;;;;;6.45;3.22;;;;;;;32.58;33.60;95272.03;4991121;28;20093;-64